sensor_id;sensor_type;location;lat;lon;timestamp;pressure;altitude;pressure_sealevel;temperature;humidity
66627;BME280;53498;50.422;14.912;2022-09-01T00:01:28;99505.34;;;16.77;76.28
66627;BME280;53498;50.422;14.912;2022-09-01T00:03:55;99511.78;;;16.58;75.61
66627;BME280;53498;50.422;14.912;2022-09-01T00:06:23;99501.50;;;16.44;76.62
66627;BME280;53498;50.422;14.912;2022-09-01T00:08:54;99504.06;;;16.49;76.80
66627;BME280;53498;50.422;14.912;2022-09-01T00:11:22;99499.88;;;16.35;77.05
66627;BME280;53498;50.422;14.912;2022-09-01T00:13:49;99507.75;;;16.35;77.85
66627;BME280;53498;50.422;14.912;2022-09-01T00:16:16;99506.19;;;16.25;77.79
66627;BME280;53498;50.422;14.912;2022-09-01T00:18:45;99503.50;;;16.28;77.85
66627;BME280;53498;50.422;14.912;2022-09-01T00:21:12;99503.47;;;16.31;78.41
66627;BME280;53498;50.422;14.912;2022-09-01T00:23:38;99500.94;;;16.25;78.68
66627;BME280;53498;50.422;14.912;2022-09-01T00:26:04;99506.09;;;16.31;79.01
66627;BME280;53498;50.422;14.912;2022-09-01T00:28:34;99506.16;;;16.27;78.12
66627;BME280;53498;50.422;14.912;2022-09-01T00:31:00;99502.69;;;16.25;78.33
66627;BME280;53498;50.422;14.912;2022-09-01T00:33:26;99506.38;;;16.13;78.73
66627;BME280;53498;50.422;14.912;2022-09-01T00:35:52;99508.13;;;16.12;80.19
66627;BME280;53498;50.422;14.912;2022-09-01T00:38:18;99508.09;;;16.17;79.69
66627;BME280;53498;50.422;14.912;2022-09-01T00:40:43;99508.13;;;16.12;79.01
66627;BME280;53498;50.422;14.912;2022-09-01T00:43:17;99508.19;;;16.09;79.13
66627;BME280;53498;50.422;14.912;2022-09-01T00:45:45;99502.94;;;16.09;79.49
66627;BME280;53498;50.422;14.912;2022-09-01T00:48:11;99501.16;;;16.11;79.93
66627;BME280;53498;50.422;14.912;2022-09-01T00:50:41;99509.03;;;16.10;80.30
66627;BME280;53498;50.422;14.912;2022-09-01T00:53:08;99503.78;;;16.10;80.44
66627;BME280;53498;50.422;14.912;2022-09-01T00:55:35;99506.41;;;16.10;80.11
66627;BME280;53498;50.422;14.912;2022-09-01T00:58:03;99507.38;;;16.06;80.66
66627;BME280;53498;50.422;14.912;2022-09-01T01:00:31;99503.97;;;15.99;80.92
66627;BME280;53498;50.422;14.912;2022-09-01T01:02:57;99504.84;;;15.98;81.59
66627;BME280;53498;50.422;14.912;2022-09-01T01:05:28;99500.56;;;15.92;82.07
66627;BME280;53498;50.422;14.912;2022-09-01T01:07:58;99497.09;;;15.90;81.53
66627;BME280;53498;50.422;14.912;2022-09-01T01:10:31;99502.38;;;15.87;80.77
66627;BME280;53498;50.422;14.912;2022-09-01T01:13:00;99500.56;;;15.92;81.94
66627;BME280;53498;50.422;14.912;2022-09-01T01:15:27;99491.66;;;16.01;81.24
66627;BME280;53498;50.422;14.912;2022-09-01T01:17:54;99496.06;;;16.01;81.25
66627;BME280;53498;50.422;14.912;2022-09-01T01:20:25;99496.06;;;16.01;80.40
66627;BME280;53498;50.422;14.912;2022-09-01T01:25:57;99479.94;;;15.63;79.99
66627;BME280;53498;50.422;14.912;2022-09-01T01:28:28;99488.75;;;15.61;80.30
66627;BME280;53498;50.422;14.912;2022-09-01T01:31:01;99484.41;;;15.58;80.66
66627;BME280;53498;50.422;14.912;2022-09-01T01:33:35;99481.63;;;15.72;81.19
66627;BME280;53498;50.422;14.912;2022-09-01T01:36:06;99490.47;;;15.62;80.70
66627;BME280;53498;50.422;14.912;2022-09-01T01:38:32;99485.28;;;15.59;80.99
66627;BME280;53498;50.422;14.912;2022-09-01T01:41:02;99486.97;;;15.63;80.86
66627;BME280;53498;50.422;14.912;2022-09-01T01:43:29;99492.16;;;15.69;80.89
66627;BME280;53498;50.422;14.912;2022-09-01T01:45:56;99491.13;;;15.79;81.75
66627;BME280;53498;50.422;14.912;2022-09-01T01:48:28;99490.22;;;15.83;80.39
66627;BME280;53498;50.422;14.912;2022-09-01T01:50:55;99488.38;;;15.88;80.43
66627;BME280;53498;50.422;14.912;2022-09-01T01:53:22;99489.22;;;15.90;80.72
66627;BME280;53498;50.422;14.912;2022-09-01T01:55:48;99487.47;;;15.91;80.66
66627;BME280;53498;50.422;14.912;2022-09-01T01:58:18;99489.22;;;15.92;81.03
66627;BME280;53498;50.422;14.912;2022-09-01T02:00:46;99481.41;;;15.87;81.52
66627;BME280;53498;50.422;14.912;2022-09-01T02:03:14;99487.50;;;15.89;80.88
66627;BME280;53498;50.422;14.912;2022-09-01T02:05:46;99482.34;;;15.82;81.33
66627;BME280;53498;50.422;14.912;2022-09-01T02:08:13;99482.38;;;15.79;81.18
66627;BME280;53498;50.422;14.912;2022-09-01T02:10:42;99487.00;;;15.60;81.06
66627;BME280;53498;50.422;14.912;2022-09-01T02:13:10;99480.06;;;15.56;81.17
66627;BME280;53498;50.422;14.912;2022-09-01T02:15:45;99490.56;;;15.56;82.27
66627;BME280;53498;50.422;14.912;2022-09-01T02:18:14;99494.97;;;15.52;82.61
66627;BME280;53498;50.422;14.912;2022-09-01T02:20:41;99497.66;;;15.47;81.96
66627;BME280;53498;50.422;14.912;2022-09-01T02:23:08;99497.66;;;15.49;82.71
66627;BME280;53498;50.422;14.912;2022-09-01T02:25:39;99488.78;;;15.58;82.54
66627;BME280;53498;50.422;14.912;2022-09-01T02:28:07;99494.91;;;15.58;82.26
66627;BME280;53498;50.422;14.912;2022-09-01T02:30:34;99496.63;;;15.61;82.25
66627;BME280;53498;50.422;14.912;2022-09-01T02:33:02;99491.41;;;15.58;81.89
66627;BME280;53498;50.422;14.912;2022-09-01T02:35:29;99502.00;;;15.52;82.37
66627;BME280;53498;50.422;14.912;2022-09-01T02:37:56;99495.03;;;15.47;82.86
66627;BME280;53498;50.422;14.912;2022-09-01T02:40:32;99497.84;;;15.34;84.15
66627;BME280;53498;50.422;14.912;2022-09-01T02:42:59;99486.56;;;15.25;85.12
66627;BME280;53498;50.422;14.912;2022-09-01T02:45:27;99489.25;;;15.21;84.78
66627;BME280;53498;50.422;14.912;2022-09-01T02:47:57;99489.28;;;15.18;85.16
66627;BME280;53498;50.422;14.912;2022-09-01T02:50:24;99490.06;;;15.26;85.01
66627;BME280;53498;50.422;14.912;2022-09-01T02:52:50;99483.97;;;15.24;85.45
66627;BME280;53498;50.422;14.912;2022-09-01T02:55:17;99486.53;;;15.28;84.56
66627;BME280;53498;50.422;14.912;2022-09-01T02:57:45;99488.25;;;15.31;84.95
66627;BME280;53498;50.422;14.912;2022-09-01T03:00:13;99489.13;;;15.32;84.47
66627;BME280;53498;50.422;14.912;2022-09-01T03:02:55;99482.19;;;15.27;83.47
66627;BME280;53498;50.422;14.912;2022-09-01T03:05:22;99483.94;;;15.25;84.53
66627;BME280;53498;50.422;14.912;2022-09-01T03:07:53;99479.59;;;15.23;84.96
66627;BME280;53498;50.422;14.912;2022-09-01T03:10:25;99474.59;;;15.03;85.36
66627;BME280;53498;50.422;14.912;2022-09-01T03:12:53;99472.16;;;14.89;85.68
66627;BME280;53498;50.422;14.912;2022-09-01T03:15:19;99482.59;;;14.92;85.96
66627;BME280;53498;50.422;14.912;2022-09-01T03:17:46;99480.97;;;14.79;86.04
66627;BME280;53498;50.422;14.912;2022-09-01T03:20:12;99477.66;;;14.65;86.57
66627;BME280;53498;50.422;14.912;2022-09-01T03:22:38;99479.31;;;14.73;86.55
66627;BME280;53498;50.422;14.912;2022-09-01T03:25:04;99479.19;;;14.84;86.23
66627;BME280;53498;50.422;14.912;2022-09-01T03:27:32;99477.41;;;14.89;85.91
66627;BME280;53498;50.422;14.912;2022-09-01T03:29:57;99478.25;;;14.88;85.68
66627;BME280;53498;50.422;14.912;2022-09-01T03:32:23;99475.63;;;14.90;85.33
66627;BME280;53498;50.422;14.912;2022-09-01T03:34:49;99477.44;;;14.85;84.69
66627;BME280;53498;50.422;14.912;2022-09-01T03:37:15;99473.88;;;14.90;85.09
66627;BME280;53498;50.422;14.912;2022-09-01T03:39:41;99466.13;;;14.83;84.82
66627;BME280;53498;50.422;14.912;2022-09-01T03:42:07;99474.03;;;14.75;85.49
66627;BME280;53498;50.422;14.912;2022-09-01T03:44:36;99475.88;;;14.70;85.13
66627;BME280;53498;50.422;14.912;2022-09-01T03:47:08;99470.66;;;14.65;85.76
66627;BME280;53498;50.422;14.912;2022-09-01T03:50:00;99477.72;;;14.58;85.81
66627;BME280;53498;50.422;14.912;2022-09-01T03:52:26;99469.97;;;14.45;86.81
66627;BME280;53498;50.422;14.912;2022-09-01T03:54:51;99472.53;;;14.52;87.22
66627;BME280;53498;50.422;14.912;2022-09-01T03:57:18;99479.50;;;14.50;86.94
66627;BME280;53498;50.422;14.912;2022-09-01T03:59:43;99467.44;;;14.31;87.61
66627;BME280;53498;50.422;14.912;2022-09-01T04:02:12;99473.59;;;14.27;88.08
66627;BME280;53498;50.422;14.912;2022-09-01T04:04:37;99474.50;;;14.26;88.56
66627;BME280;53498;50.422;14.912;2022-09-01T04:07:03;99479.69;;;14.30;88.29
66627;BME280;53498;50.422;14.912;2022-09-01T04:09:28;99478.81;;;14.30;88.16
66627;BME280;53498;50.422;14.912;2022-09-01T04:11:54;99478.78;;;14.33;88.77
66627;BME280;53498;50.422;14.912;2022-09-01T04:14:20;99479.63;;;14.37;88.13
66627;BME280;53498;50.422;14.912;2022-09-01T04:16:45;99473.56;;;14.28;87.79
66627;BME280;53498;50.422;14.912;2022-09-01T04:19:32;99490.19;;;14.26;87.31
66627;BME280;53498;50.422;14.912;2022-09-01T04:22:07;99486.72;;;14.24;87.75
66627;BME280;53498;50.422;14.912;2022-09-01T04:24:37;99484.06;;;14.25;87.27
66627;BME280;53498;50.422;14.912;2022-09-01T04:27:10;99491.94;;;14.24;86.78
66627;BME280;53498;50.422;14.912;2022-09-01T04:29:37;99484.88;;;14.32;86.86
66627;BME280;53498;50.422;14.912;2022-09-01T04:32:06;99491.81;;;14.39;86.43
66627;BME280;53498;50.422;14.912;2022-09-01T04:34:33;99489.19;;;14.42;86.52
66627;BME280;53498;50.422;14.912;2022-09-01T04:37:09;99489.19;;;14.39;85.70
66627;BME280;53498;50.422;14.912;2022-09-01T04:39:53;99502.25;;;14.42;86.04
66627;BME280;53498;50.422;14.912;2022-09-01T04:42:20;99501.38;;;14.43;86.51
66627;BME280;53498;50.422;14.912;2022-09-01T04:44:49;99504.09;;;14.32;86.22
66627;BME280;53498;50.422;14.912;2022-09-01T04:47:15;99508.44;;;14.33;86.41
66627;BME280;53498;50.422;14.912;2022-09-01T04:49:45;99505.72;;;14.44;87.04
66627;BME280;53498;50.422;14.912;2022-09-01T04:52:13;99504.84;;;14.51;86.94
66627;BME280;53498;50.422;14.912;2022-09-01T04:54:38;99501.34;;;14.48;86.17
66627;BME280;53498;50.422;14.912;2022-09-01T04:57:04;99497.75;;;14.61;86.61
66627;BME280;53498;50.422;14.912;2022-09-01T04:59:33;99494.28;;;14.59;85.17
66627;BME280;53498;50.422;14.912;2022-09-01T05:02:00;99493.34;;;14.65;85.72
66627;BME280;53498;50.422;14.912;2022-09-01T05:04:29;99499.41;;;14.73;85.62
66627;BME280;53498;50.422;14.912;2022-09-01T05:06:59;99501.94;;;14.80;84.71
66627;BME280;53498;50.422;14.912;2022-09-01T05:09:33;99508.88;;;14.86;83.78
66627;BME280;53498;50.422;14.912;2022-09-01T05:12:00;99500.94;;;14.92;84.18
66627;BME280;53498;50.422;14.912;2022-09-01T05:14:45;99501.63;;;15.07;83.92
66627;BME280;53498;50.422;14.912;2022-09-01T05:17:21;99505.16;;;15.06;84.29
66627;BME280;53498;50.422;14.912;2022-09-01T05:19:50;99505.97;;;15.11;83.17
66627;BME280;53498;50.422;14.912;2022-09-01T05:22:16;99501.53;;;15.17;83.60
66627;BME280;53498;50.422;14.912;2022-09-01T05:24:46;99502.47;;;15.10;83.43
66627;BME280;53498;50.422;14.912;2022-09-01T05:27:11;99503.41;;;15.08;83.37
66627;BME280;53498;50.422;14.912;2022-09-01T05:29:38;99512.16;;;15.03;83.66
66627;BME280;53498;50.422;14.912;2022-09-01T05:32:06;99503.34;;;15.12;83.64
66627;BME280;53498;50.422;14.912;2022-09-01T05:34:34;99497.91;;;15.26;83.00
66627;BME280;53498;50.422;14.912;2022-09-01T05:37:03;99502.06;;;15.45;82.57
66627;BME280;53498;50.422;14.912;2022-09-01T05:39:31;99498.47;;;15.53;80.95
66627;BME280;53498;50.422;14.912;2022-09-01T05:41:59;99491.47;;;15.55;80.45
66627;BME280;53498;50.422;14.912;2022-09-01T05:44:25;99492.19;;;15.63;81.23
66627;BME280;53498;50.422;14.912;2022-09-01T05:46:51;99493.97;;;15.62;81.09
66627;BME280;53498;50.422;14.912;2022-09-01T05:49:17;99494.00;;;15.61;80.36
66627;BME280;53498;50.422;14.912;2022-09-01T05:51:49;99488.53;;;15.78;80.56
66627;BME280;53498;50.422;14.912;2022-09-01T05:54:19;99497.13;;;15.87;78.37
66627;BME280;53498;50.422;14.912;2022-09-01T05:56:47;99497.09;;;15.90;79.62
66627;BME280;53498;50.422;14.912;2022-09-01T05:59:14;99498.09;;;15.82;77.28
66627;BME280;53498;50.422;14.912;2022-09-01T06:01:40;99497.81;;;16.00;77.53
66627;BME280;53498;50.422;14.912;2022-09-01T06:04:08;99502.06;;;16.09;75.27
66627;BME280;53498;50.422;14.912;2022-09-01T06:06:44;99500.72;;;15.83;74.94
66627;BME280;53498;50.422;14.912;2022-09-01T06:09:12;99497.69;;;16.11;75.08
66627;BME280;53498;50.422;14.912;2022-09-01T06:11:39;99499.63;;;15.96;73.27
66627;BME280;53498;50.422;14.912;2022-09-01T06:14:05;99497.28;;;15.78;76.05
66627;BME280;53498;50.422;14.912;2022-09-01T06:16:33;99494.69;;;15.75;74.42
66627;BME280;53498;50.422;14.912;2022-09-01T06:19:00;99506.13;;;15.71;73.59
66627;BME280;53498;50.422;14.912;2022-09-01T06:21:26;99503.28;;;15.85;73.91
66627;BME280;53498;50.422;14.912;2022-09-01T06:23:54;99506.41;;;16.11;72.17
66627;BME280;53498;50.422;14.912;2022-09-01T06:26:27;99511.19;;;15.83;72.79
66627;BME280;53498;50.422;14.912;2022-09-01T06:28:56;99511.13;;;15.89;73.35
66627;BME280;53498;50.422;14.912;2022-09-01T06:31:27;99506.69;;;15.91;73.08
66627;BME280;53498;50.422;14.912;2022-09-01T06:34:00;99505.13;;;15.80;73.59
66627;BME280;53498;50.422;14.912;2022-09-01T06:36:26;99499.03;;;15.78;73.91
66627;BME280;53498;50.422;14.912;2022-09-01T06:38:54;99501.44;;;15.91;73.45
66627;BME280;53498;50.422;14.912;2022-09-01T06:41:21;99502.22;;;15.98;73.88
66627;BME280;53498;50.422;14.912;2022-09-01T06:43:50;99507.94;;;16.23;72.94
66627;BME280;53498;50.422;14.912;2022-09-01T06:46:19;99512.84;;;16.46;72.14
66627;BME280;53498;50.422;14.912;2022-09-01T06:48:46;99510.00;;;16.58;71.60
66627;BME280;53498;50.422;14.912;2022-09-01T06:51:18;99512.31;;;16.78;72.17
66627;BME280;53498;50.422;14.912;2022-09-01T06:53:46;99510.38;;;16.88;71.72
66627;BME280;53498;50.422;14.912;2022-09-01T06:56:18;99516.78;;;16.70;71.20
66627;BME280;53498;50.422;14.912;2022-09-01T06:58:45;99521.09;;;16.76;69.94
66627;BME280;53498;50.422;14.912;2022-09-01T07:01:14;99512.88;;;16.96;71.32
66627;BME280;53498;50.422;14.912;2022-09-01T07:03:43;99512.44;;;17.17;70.10
66627;BME280;53498;50.422;14.912;2022-09-01T07:06:09;99512.22;;;17.70;68.28
66627;BME280;53498;50.422;14.912;2022-09-01T07:08:36;99512.66;;;17.92;67.11
66627;BME280;53498;50.422;14.912;2022-09-01T07:11:16;99515.03;;;17.62;66.99
66627;BME280;53498;50.422;14.912;2022-09-01T07:13:42;99509.84;;;17.59;66.83
66627;BME280;53498;50.422;14.912;2022-09-01T07:16:18;99517.78;;;17.56;67.04
66627;BME280;53498;50.422;14.912;2022-09-01T07:18:50;99514.75;;;17.32;67.47
66627;BME280;53498;50.422;14.912;2022-09-01T07:21:17;99520.81;;;17.38;67.51
66627;BME280;53498;50.422;14.912;2022-09-01T07:23:44;99520.69;;;17.44;67.95
66627;BME280;53498;50.422;14.912;2022-09-01T07:26:10;99509.84;;;17.59;67.52
66627;BME280;53498;50.422;14.912;2022-09-01T07:28:46;99516.22;;;17.47;65.97
66627;BME280;53498;50.422;14.912;2022-09-01T07:31:26;99517.03;;;17.51;66.66
66627;BME280;53498;50.422;14.912;2022-09-01T07:33:55;99522.28;;;17.51;66.56
66627;BME280;53498;50.422;14.912;2022-09-01T07:36:23;99522.59;;;17.35;66.00
66627;BME280;53498;50.422;14.912;2022-09-01T07:38:49;99522.94;;;17.17;66.56
66627;BME280;53498;50.422;14.912;2022-09-01T07:41:20;99527.59;;;17.49;67.44
66627;BME280;53498;50.422;14.912;2022-09-01T07:43:46;99525.13;;;17.84;66.93
66627;BME280;53498;50.422;14.912;2022-09-01T07:46:20;99524.41;;;17.77;64.13
66627;BME280;53498;50.422;14.912;2022-09-01T07:48:48;99528.81;;;17.73;63.76
66627;BME280;53498;50.422;14.912;2022-09-01T07:51:17;99529.16;;;17.58;63.24
66627;BME280;53498;50.422;14.912;2022-09-01T07:53:46;99524.84;;;17.96;63.90
66627;BME280;53498;50.422;14.912;2022-09-01T07:56:17;99524.13;;;18.62;62.30
66627;BME280;53498;50.422;14.912;2022-09-01T07:58:45;99521.88;;;19.15;59.46
66627;BME280;53498;50.422;14.912;2022-09-01T08:01:17;99524.63;;;19.11;59.24
66627;BME280;53498;50.422;14.912;2022-09-01T08:03:48;99530.13;;;19.02;58.87
66627;BME280;53498;50.422;14.912;2022-09-01T08:06:17;99516.97;;;19.33;59.96
66627;BME280;53498;50.422;14.912;2022-09-01T08:08:44;99520.84;;;19.21;57.88
66627;BME280;53498;50.422;14.912;2022-09-01T08:11:18;99526.06;;;18.56;58.73
66627;BME280;53498;50.422;14.912;2022-09-01T08:13:44;99528.72;;;18.54;60.18
66627;BME280;53498;50.422;14.912;2022-09-01T08:16:10;99532.75;;;18.69;59.66
66627;BME280;53498;50.422;14.912;2022-09-01T08:18:36;99535.94;;;18.82;57.32
66627;BME280;53498;50.422;14.912;2022-09-01T08:21:09;99537.19;;;19.01;57.38
66627;BME280;53498;50.422;14.912;2022-09-01T08:23:36;99528.03;;;19.14;57.85
66627;BME280;53498;50.422;14.912;2022-09-01T08:26:07;99523.94;;;19.35;56.80
66627;BME280;53498;50.422;14.912;2022-09-01T08:28:33;99533.81;;;19.27;55.53
66627;BME280;53498;50.422;14.912;2022-09-01T08:30:59;99528.53;;;19.29;55.91
66627;BME280;53498;50.422;14.912;2022-09-01T08:33:25;99535.94;;;19.46;54.31
66627;BME280;53498;50.422;14.912;2022-09-01T08:35:51;99530.13;;;19.66;55.68
66627;BME280;53498;50.422;14.912;2022-09-01T08:38:17;99528.09;;;19.44;55.97
66627;BME280;53498;50.422;14.912;2022-09-01T08:40:49;99531.00;;;19.35;56.74
66627;BME280;53498;50.422;14.912;2022-09-01T08:45:51;99524.34;;;19.82;55.81
66627;BME280;53498;50.422;14.912;2022-09-01T08:48:24;99530.84;;;19.71;55.70
66627;BME280;53498;50.422;14.912;2022-09-01T08:50:59;99525.66;;;19.68;55.63
66627;BME280;53498;50.422;14.912;2022-09-01T08:53:31;99527.00;;;19.51;50.36
66627;BME280;53498;50.422;14.912;2022-09-01T08:55:59;99516.59;;;19.76;51.21
66627;BME280;53498;50.422;14.912;2022-09-01T08:58:28;99536.25;;;20.24;53.25
66627;BME280;53498;50.422;14.912;2022-09-01T09:01:12;99526.44;;;20.55;51.97
66627;BME280;53498;50.422;14.912;2022-09-01T09:04:05;99524.25;;;21.18;51.70
66627;BME280;53498;50.422;14.912;2022-09-01T09:09:17;99518.53;;;20.80;50.92
66627;BME280;53498;50.422;14.912;2022-09-01T09:14:47;99520.72;;;20.68;48.96
66627;BME280;53498;50.422;14.912;2022-09-01T09:17:22;99520.72;;;20.41;50.51
66627;BME280;53498;50.422;14.912;2022-09-01T09:19:49;99528.34;;;20.50;51.56
66627;BME280;53498;50.422;14.912;2022-09-01T09:22:17;99521.41;;;20.46;51.23
66627;BME280;53498;50.422;14.912;2022-09-01T09:24:54;99519.13;;;20.64;52.46
66627;BME280;53498;50.422;14.912;2022-09-01T09:27:29;99508.41;;;20.93;51.32
66627;BME280;53498;50.422;14.912;2022-09-01T09:29:58;99519.88;;;20.92;51.48
66627;BME280;53498;50.422;14.912;2022-09-01T09:35:45;99514.31;;;21.25;47.27
66627;BME280;53498;50.422;14.912;2022-09-01T09:41:00;99515.19;;;21.25;47.44
66627;BME280;53498;50.422;14.912;2022-09-01T09:43:27;99513.44;;;21.24;47.18
66627;BME280;53498;50.422;14.912;2022-09-01T09:46:26;99513.84;;;21.14;46.84
66627;BME280;53498;50.422;14.912;2022-09-01T09:51:37;99511.38;;;20.84;46.80
66627;BME280;53498;50.422;14.912;2022-09-01T09:54:21;99518.28;;;20.88;48.11
66627;BME280;53498;50.422;14.912;2022-09-01T09:56:48;99522.06;;;20.81;47.81
66627;BME280;53498;50.422;14.912;2022-09-01T09:59:30;99521.34;;;20.76;46.93
66627;BME280;53498;50.422;14.912;2022-09-01T10:01:57;99521.03;;;20.59;46.69
66627;BME280;53498;50.422;14.912;2022-09-01T10:04:32;99522.25;;;20.48;46.58
66627;BME280;53498;50.422;14.912;2022-09-01T10:06:58;99520.47;;;20.22;47.39
66627;BME280;53498;50.422;14.912;2022-09-01T10:11:51;99518.00;;;19.88;48.22
66627;BME280;53498;50.422;14.912;2022-09-01T10:14:26;99523.66;;;19.76;47.95
66627;BME280;53498;50.422;14.912;2022-09-01T10:16:59;99520.19;;;19.74;50.25
66627;BME280;53498;50.422;14.912;2022-09-01T10:19:26;99519.16;;;19.79;51.08
66627;BME280;53498;50.422;14.912;2022-09-01T10:21:55;99521.75;;;19.81;50.03
66627;BME280;53498;50.422;14.912;2022-09-01T10:24:29;99524.25;;;19.85;49.48
66627;BME280;53498;50.422;14.912;2022-09-01T10:27:01;99518.88;;;19.88;49.18
66627;BME280;53498;50.422;14.912;2022-09-01T10:29:30;99521.38;;;19.93;49.35
66627;BME280;53498;50.422;14.912;2022-09-01T10:31:58;99519.69;;;19.91;49.14
66627;BME280;53498;50.422;14.912;2022-09-01T10:34:26;99525.78;;;19.93;50.15
66627;BME280;53498;50.422;14.912;2022-09-01T10:36:58;99521.38;;;19.93;49.19
66627;BME280;53498;50.422;14.912;2022-09-01T10:39:24;99522.91;;;20.00;49.10
66627;BME280;53498;50.422;14.912;2022-09-01T10:41:53;99528.81;;;20.08;49.52
66627;BME280;53498;50.422;14.912;2022-09-01T10:44:27;99522.47;;;20.14;48.87
66627;BME280;53498;50.422;14.912;2022-09-01T10:46:57;99521.56;;;20.15;49.56
66627;BME280;53498;50.422;14.912;2022-09-01T10:51:54;99517.16;;;20.16;48.84
66627;BME280;53498;50.422;14.912;2022-09-01T11:13:45;99511.97;;;20.39;47.97
66627;BME280;53498;50.422;14.912;2022-09-01T11:18:52;99509.94;;;20.47;48.60
66627;BME280;53498;50.422;14.912;2022-09-01T11:21:27;99509.94;;;20.47;47.23
66627;BME280;53498;50.422;14.912;2022-09-01T11:26:57;99512.69;;;20.44;47.20
66627;BME280;53498;50.422;14.912;2022-09-01T11:29:59;99518.28;;;20.62;47.22
66627;BME280;53498;50.422;14.912;2022-09-01T11:32:33;99518.09;;;20.41;46.14
66627;BME280;53498;50.422;14.912;2022-09-01T11:35:02;99513.44;;;20.48;46.95
66627;BME280;53498;50.422;14.912;2022-09-01T11:37:30;99515.44;;;20.68;46.81
66627;BME280;53498;50.422;14.912;2022-09-01T11:39:59;99509.16;;;20.72;45.01
66627;BME280;53498;50.422;14.912;2022-09-01T11:42:30;99504.78;;;20.96;46.79
66627;BME280;53498;50.422;14.912;2022-09-01T11:45:02;99507.94;;;21.06;45.21
66627;BME280;53498;50.422;14.912;2022-09-01T11:47:36;99503.66;;;20.78;44.77
66627;BME280;53498;50.422;14.912;2022-09-01T11:52:41;99496.50;;;21.05;45.04
66627;BME280;53498;50.422;14.912;2022-09-01T11:55:08;99506.06;;;21.34;44.51
66627;BME280;53498;50.422;14.912;2022-09-01T11:57:38;99496.19;;;21.39;42.40
66627;BME280;53498;50.422;14.912;2022-09-01T12:00:11;99491.00;;;21.60;43.16
66627;BME280;53498;50.422;14.912;2022-09-01T12:02:47;99487.25;;;21.42;41.28
66627;BME280;53498;50.422;14.912;2022-09-01T12:05:31;99497.75;;;21.20;40.42
66627;BME280;53498;50.422;14.912;2022-09-01T12:07:58;99498.19;;;20.83;42.44
66627;BME280;53498;50.422;14.912;2022-09-01T12:15:34;99487.75;;;19.98;41.78
66627;BME280;53498;50.422;14.912;2022-09-01T12:21:20;99489.63;;;19.95;42.38
66627;BME280;53498;50.422;14.912;2022-09-01T12:23:46;99490.75;;;19.87;43.23
66627;BME280;53498;50.422;14.912;2022-09-01T12:26:14;99488.13;;;19.87;41.48
66627;BME280;53498;50.422;14.912;2022-09-01T12:28:42;99487.09;;;19.92;41.97
66627;BME280;53498;50.422;14.912;2022-09-01T12:31:14;99483.97;;;20.07;42.37
66627;BME280;53498;50.422;14.912;2022-09-01T12:33:42;99486.97;;;20.23;43.98
66627;BME280;53498;50.422;14.912;2022-09-01T12:36:30;99483.09;;;20.33;41.84
66627;BME280;53498;50.422;14.912;2022-09-01T12:41:43;99485.47;;;20.16;43.60
66627;BME280;53498;50.422;14.912;2022-09-01T12:44:42;99483.59;;;20.18;44.64
66627;BME280;53498;50.422;14.912;2022-09-01T12:47:11;99487.06;;;20.20;46.66
66627;BME280;53498;50.422;14.912;2022-09-01T12:49:44;99482.56;;;20.23;45.64
66627;BME280;53498;50.422;14.912;2022-09-01T12:52:19;99481.59;;;20.26;45.59
66627;BME280;53498;50.422;14.912;2022-09-01T12:54:54;99479.81;;;20.26;46.09
66627;BME280;53498;50.422;14.912;2022-09-01T12:57:39;99483.56;;;20.19;45.26
66627;BME280;53498;50.422;14.912;2022-09-01T13:00:23;99478.13;;;20.24;45.91
66627;BME280;53498;50.422;14.912;2022-09-01T13:02:49;99485.59;;;20.11;45.05
66627;BME280;53498;50.422;14.912;2022-09-01T13:07:48;99475.59;;;20.21;45.61
66627;BME280;53498;50.422;14.912;2022-09-01T13:10:13;99476.25;;;20.27;46.82
66627;BME280;53498;50.422;14.912;2022-09-01T13:12:40;99471.97;;;20.23;46.41
66627;BME280;53498;50.422;14.912;2022-09-01T13:15:07;99476.72;;;20.14;43.71
66627;BME280;53498;50.422;14.912;2022-09-01T13:17:33;99469.91;;;20.06;43.81
66627;BME280;53498;50.422;14.912;2022-09-01T13:19:59;99471.81;;;20.01;43.57
66627;BME280;53498;50.422;14.912;2022-09-01T13:22:24;99468.56;;;19.93;43.80
66627;BME280;53498;50.422;14.912;2022-09-01T13:24:50;99475.56;;;19.94;43.49
66627;BME280;53498;50.422;14.912;2022-09-01T13:27:16;99474.53;;;20.00;43.66
66627;BME280;53498;50.422;14.912;2022-09-01T13:29:41;99466.81;;;19.92;43.78
66627;BME280;53498;50.422;14.912;2022-09-01T13:32:06;99474.34;;;19.78;42.93
66627;BME280;53498;50.422;14.912;2022-09-01T13:34:34;99466.63;;;19.70;41.98
66627;BME280;53498;50.422;14.912;2022-09-01T13:36:59;99469.25;;;19.72;40.87
66627;BME280;53498;50.422;14.912;2022-09-01T13:39:25;99473.69;;;19.70;41.87
66627;BME280;53498;50.422;14.912;2022-09-01T13:41:51;99473.31;;;19.82;42.49
66627;BME280;53498;50.422;14.912;2022-09-01T13:44:17;99477.75;;;19.81;41.61
66627;BME280;53498;50.422;14.912;2022-09-01T13:46:43;99472.50;;;19.80;41.00
66627;BME280;53498;50.422;14.912;2022-09-01T13:49:09;99469.06;;;19.78;41.51
66627;BME280;53498;50.422;14.912;2022-09-01T13:51:36;99470.94;;;19.74;42.18
66627;BME280;53498;50.422;14.912;2022-09-01T13:54:02;99469.75;;;19.83;42.30
66627;BME280;53498;50.422;14.912;2022-09-01T13:56:28;99466.22;;;19.84;42.30
66627;BME280;53498;50.422;14.912;2022-09-01T13:58:53;99469.91;;;19.78;42.06
66627;BME280;53498;50.422;14.912;2022-09-01T14:01:19;99470.97;;;19.73;42.56
66627;BME280;53498;50.422;14.912;2022-09-01T14:03:46;99463.00;;;19.74;43.45
66627;BME280;53498;50.422;14.912;2022-09-01T14:06:13;99474.44;;;19.75;42.96
66627;BME280;53498;50.422;14.912;2022-09-01T14:08:39;99469.25;;;19.72;42.89